Fort Dick, California
Current Conditions -  °F | °C
As of 1:56 AM on Friday 24 Oct 2014 (Local Time) from KCEC Reporting Station
Light Rain Light Rain  
Wind Chill: 57°   Ceiling: 8000
Heat Index: 57°   Visibility: 8mi
Dew Point: 56°   Wind: 0mph
Humidity: 96%   Direction: NA
Pressure: 30"   Gusts: NA
Location:  41.87°N, 124.15°W
Report Text: KCEC 240856Z AUTO 00000KT 8SM -RA OVC080 14/13 A3000 RMK AO2 SLP160 P0003 60004 T01390133 53004
Loading
Personal Weather Stations






























Interactive Weather Map
Tropical Storm Tracking
New forecast layout! Learn more

10-Day Weather Forecast

Advertisements
Track Severe Weather on mobile